Flight Track Log - Related Links

Times and Time Zones

All times are in EDT time to prevent confusion due to time zone crossing. See the SWA2624 flight status page for this flight to view local times or setup timezone preferences in your user account.

Time Position Orientation Groundspeed Altitude Reporting Facility
EDT Latitude Longitude Course Direction KTS MPH feet Rate Location/Type
Sun 06:41:06 PM 39.1500 -76.6500 247° West 165 190 1,300  Level Potomac TRACON
Sun 06:42:07 PM 39.1333 -76.7000 247° West 230 265 3,400 2,430 Climbing Potomac TRACON
Sun 06:43:07 PM 39.1833 -76.7833 308° West 249 287 6,200 3,400 Climbing Potomac TRACON
Sun 06:44:07 PM 39.2000 -76.8667 284° West 284 327 10,200 3,900 Climbing Potomac TRACON
Sun 06:45:07 PM 39.2167 -76.9667 282° West 282 325 14,000 2,747 Climbing Potomac TRACON
Sun 06:47:17 PM 39.1611 -77.2031 253° West 334 384 18,900 2,635 Climbing Washington Center
Sun 06:48:16 PM 39.1056 -77.3008 234° Southwest 334 384 22,300 2,750 Climbing Washington Center
Sun 06:49:17 PM 39.0725 -77.4231 251° West 348 400 24,400 2,200 Climbing Washington Center
Sun 06:50:16 PM 39.0347 -77.5664 251° West 374 430 26,700 2,218 Climbing Washington Center
Sun 06:51:16 PM 38.9972 -77.6989 250° West 396 456 28,800 2,182 Climbing Washington Center
Sun 06:52:17 PM 38.9592 -77.8314 250° West 396 456 31,100 2,400 Climbing Washington Center
Sun 06:53:16 PM 38.9256 -77.9611 252° West 396 456 33,600 2,067 Climbing Washington Center
Sun 06:54:16 PM 38.8875 -78.0853 249° West 391 450 35,200 1,600 Climbing Washington Center
Sun 06:55:16 PM 38.8558 -78.2094 252° West 380 437 36,800 1,388 Climbing Washington Center
Sun 06:56:17 PM 38.8528 -78.3425 268° West 375 432 38,000 595 Climbing Washington Center
Sun 06:57:17 PM 38.8517 -78.4786 269° West 375 432 38,000  Level Washington Center
Sun 06:58:17 PM 38.8506 -78.6117 269° West 380 437 38,000  Level Washington Center
Sun 06:59:16 PM 38.8492 -78.7478 269° West 380 437 38,000  Level Washington Center
Sun 07:00:17 PM 38.8475 -78.8861 269° West 385 443 38,000  Level Washington Center
Sun 07:01:16 PM 38.8458 -79.0167 269° West 385 443 38,000  Level Washington Center
Sun 07:02:16 PM 38.8419 -79.1553 268° West 385 443 38,000  Level Washington Center
Sun 07:03:16 PM 38.8419 -79.2936 270° West 385 443 38,000  Level Washington Center
Sun 07:04:16 PM 38.8375 -79.4294 268° West 385 443 38,000  Level Washington Center
Sun 07:05:16 PM 38.8353 -79.5653 269° West 385 443 38,000 100 Level Washington Center
Sun 07:06:16 PM 38.8325 -79.7064 269° West 391 450 38,200 450 Climbing Washington Center
Sun 07:07:16 PM 38.8283 -79.8314 268° West 396 456 38,900 694 Climbing Washington Center
Sun 07:08:17 PM 38.8272 -79.9725 269° West 396 456 39,600 373 Climbing Washington Center
Sun 07:10:13 PM 38.8161 -80.2406 267° West 406 467 40,000 135 Climbing Indianapolis Center
Sun 07:11:15 PM 38.8122 -80.3847 268° West 405 466 40,000  Level Indianapolis Center
Sun 07:12:17 PM 38.8072 -80.5583 268° West 406 467 40,000  Level Indianapolis Center
Sun 07:13:19 PM 38.8028 -80.7028 268° West 405 466 40,000  Level Indianapolis Center
Sun 07:14:21 PM 38.7989 -80.8472 268° West 406 467 40,000  Level Indianapolis Center
Sun 07:15:23 PM 38.7939 -80.9911 267° West 405 466 40,000  Level Indianapolis Center
Sun 07:16:25 PM 38.7889 -81.1356 268° West 406 467 40,000  Level Indianapolis Center
Sun 07:17:27 PM 38.7839 -81.2789 267° West 405 466 40,000  Level Indianapolis Center
Sun 07:18:29 PM 38.7783 -81.4297 267° West 404 465 40,000  Level Indianapolis Center
Sun 07:19:31 PM 38.7728 -81.5989 268° West 407 468 40,000  Level Indianapolis Center
Sun 07:20:33 PM 38.7669 -81.7292 267° West 403 464 40,000  Level Indianapolis Center
Sun 07:21:34 PM 38.7614 -81.8719 267° West 404 465 40,000  Level Indianapolis Center
Sun 07:22:36 PM 38.7542 -82.0453 267° West 405 466 40,000  Level Indianapolis Center
Sun 07:23:38 PM 38.7492 -82.1889 267° West 405 466 40,000  Level Indianapolis Center
Sun 07:24:40 PM 38.7428 -82.3333 267° West 406 467 40,000  Level Indianapolis Center
Sun 07:25:42 PM 38.7375 -82.4778 267° West 406 467 40,000  Level Indianapolis Center
Sun 07:26:44 PM 38.7314 -82.6225 267° West 406 467 40,000  Level Indianapolis Center
Sun 07:27:46 PM 38.7256 -82.7672 267° West 407 468 40,000  Level Indianapolis Center
Sun 07:28:47 PM 38.7189 -82.9133 267° West 411 473 40,000  Level Indianapolis Center
Sun 07:29:49 PM 38.7128 -83.0586 267° West 407 468 40,000  Level Indianapolis Center
Sun 07:30:51 PM 38.7044 -83.2228 266° West 408 470 40,000  Level Indianapolis Center
Sun 07:31:53 PM 38.6983 -83.3681 267° West 406 467 40,000  Level Indianapolis Center
Sun 07:32:55 PM 38.6908 -83.5131 266° West 405 466 40,000  Level Indianapolis Center
Sun 07:33:56 PM 38.6844 -83.6572 267° West 404 465 40,000  Level Indianapolis Center
Sun 07:34:58 PM 38.6764 -83.8019 266° West 403 464 40,000  Level Indianapolis Center
Sun 07:36:00 PM 38.6683 -83.9697 267° West 402 463 40,000  Level Indianapolis Center
Sun 07:37:02 PM 38.6594 -84.1153 266° West 404 465 40,000  Level Indianapolis Center
Sun 07:38:03 PM 38.6517 -84.2600 266° West 404 465 40,000  Level Indianapolis Center
Sun 07:39:05 PM 38.6542 -84.4072 271° West 406 467 40,000  Level Indianapolis Center
Sun 07:40:07 PM 38.6619 -84.5517 274° West 406 467 40,000  Level Indianapolis Center
Sun 07:41:09 PM 38.6719 -84.6978 275° West 410 472 40,000  Level Indianapolis Center
Sun 07:42:10 PM 38.6797 -84.8453 274° West 415 478 40,000  Level Indianapolis Center
Sun 07:43:12 PM 38.6883 -85.0017 274° West 412 474 40,000  Level Indianapolis Center
Sun 07:44:14 PM 38.6936 -85.1481 273° West 411 473 40,000  Level Indianapolis Center
Sun 07:45:15 PM 38.6864 -85.2942 266° West 409 471 40,000  Level Indianapolis Center
Sun 07:46:17 PM 38.6803 -85.4397 267° West 410 472 40,000  Level Indianapolis Center
Sun 07:47:19 PM 38.6744 -85.5842 267° West 408 470 40,000  Level Indianapolis Center
Sun 07:48:20 PM 38.6683 -85.7572 267° West 405 466 40,000  Level Indianapolis Center
Sun 07:49:22 PM 38.6625 -85.9014 267° West 404 465 40,000  Level Indianapolis Center
Sun 07:50:24 PM 38.6567 -86.0467 267° West 409 471 40,000  Level Indianapolis Center
Sun 07:51:25 PM 38.6511 -86.1903 267° West 405 466 40,000  Level Indianapolis Center
Sun 07:52:27 PM 38.6439 -86.3364 266° West 410 472 40,000  Level Indianapolis Center
Sun 07:53:29 PM 38.6375 -86.4817 267° West 410 472 40,000  Level Indianapolis Center
Sun 07:54:30 PM 38.6300 -86.6256 266° West 408 470 40,000  Level Indianapolis Center
Sun 07:55:32 PM 38.6239 -86.7700 267° West 409 471 40,000  Level Indianapolis Center
Sun 07:56:33 PM 38.6150 -86.9431 266° West 408 470 40,000  Level Indianapolis Center
Sun 07:57:35 PM 38.6075 -87.0867 266° West 410 472 40,000  Level Indianapolis Center
Sun 07:58:36 PM 38.6003 -87.2297 266° West 408 470 40,000  Level Indianapolis Center
Sun 07:59:38 PM 38.5931 -87.3739 266° West 407 468 40,000  Level Indianapolis Center
Sun 08:00:40 PM 38.5844 -87.5167 266° West 405 466 40,000  Level Indianapolis Center
Sun 08:01:41 PM 38.5764 -87.6603 266° West 406 467 40,000  Level Indianapolis Center
Sun 08:02:43 PM 38.5681 -87.8061 266° West 409 471 40,000  Level Indianapolis Center
Sun 08:03:44 PM 38.5597 -87.9497 266° West 408 470 40,000  Level Indianapolis Center
Sun 08:04:03 PM 38.5553 -88.0097 265° West 412 474 40,000  Level Kansas City Center
Sun 08:05:06 PM 38.5464 -88.1558 266° West 413 475 40,000  Level Kansas City Center
Sun 08:06:07 PM 38.5381 -88.3025 266° West 413 475 40,000  Level Kansas City Center
Sun 08:07:10 PM 38.5294 -88.4489 266° West 414 476 40,000  Level Kansas City Center
Sun 08:08:12 PM 38.5200 -88.5953 265° West 414 476 40,000  Level Kansas City Center
Sun 08:09:14 PM 38.5064 -88.7728 264° West 416 479 40,000  Level Kansas City Center
Sun 08:10:14 PM 38.4972 -88.9153 265° West 406 467 40,000  Level Kansas City Center
Sun 08:11:17 PM 38.4861 -89.0703 265° West 408 470 40,000  Level Kansas City Center
Sun 08:12:18 PM 38.4772 -89.2108 265° West 399 459 40,000  Level Kansas City Center
Sun 08:13:21 PM 38.4683 -89.3528 265° West 401 461 40,000  Level Kansas City Center
Sun 08:14:22 PM 38.4567 -89.5058 264° West 403 464 40,000  Level Kansas City Center
Sun 08:15:25 PM 38.4456 -89.6456 264° West 398 458 40,000  Level Kansas City Center
Sun 08:16:26 PM 38.4369 -89.7844 266° West 391 450 40,000  Level Kansas City Center
Sun 08:17:27 PM 38.4258 -89.9267 264° West 397 457 40,000  Level Kansas City Center
Sun 08:18:30 PM 38.4139 -90.0675 264° West 399 459 40,000  Level Kansas City Center
Sun 08:19:31 PM 38.4028 -90.2092 264° West 399 459 40,000  Level Kansas City Center
Sun 08:20:33 PM 38.3897 -90.3739 264° West 402 463 40,000  Level Kansas City Center
Sun 08:21:34 PM 38.3806 -90.4944 264° West 402 463 40,000  Level Kansas City Center
Sun 08:22:38 PM 38.3681 -90.6369 264° West 402 463 40,000  Level Kansas City Center
Sun 08:23:39 PM 38.3542 -90.8044 264° West 396 456 40,000  Level Kansas City Center
Sun 08:24:40 PM 38.3419 -90.9478 264° West 405 466 40,000  Level Kansas City Center
Sun 08:25:44 PM 38.3303 -91.0872 264° West 397 457 40,000  Level Kansas City Center
Sun 08:26:44 PM 38.3183 -91.2300 264° West 403 464 40,000  Level Kansas City Center
Sun 08:27:48 PM 38.3039 -91.3717 263° West 403 464 40,000  Level Kansas City Center
Sun 08:28:49 PM 38.2936 -91.5142 265° West 408 470 40,000  Level Kansas City Center
Sun 08:29:49 PM 38.2775 -91.6872 263° West 409 471 40,000  Level Kansas City Center
Sun 08:30:53 PM 38.2639 -91.8306 263° West 407 468 40,000  Level Kansas City Center
Sun 08:31:53 PM 38.2519 -91.9722 264° West 403 464 40,000  Level Kansas City Center
Sun 08:32:54 PM 38.2381 -92.1125 263° West 401 461 40,000  Level Kansas City Center
Sun 08:33:58 PM 38.2242 -92.2533 263° West 403 464 40,000  Level Kansas City Center
Sun 08:34:59 PM 38.2133 -92.3650 263° West 403 464 40,000  Level Kansas City Center
Sun 08:36:01 PM 38.1950 -92.5622 263° West 404 465 40,000  Level Kansas City Center
Sun 08:37:02 PM 38.1822 -92.6800 262° West 403 464 40,000  Level Kansas City Center
Sun 08:38:04 PM 38.1658 -92.8422 263° West 402 463 40,000  Level Kansas City Center
Sun 08:39:07 PM 38.1511 -92.9814 262° West 399 459 40,000  Level Kansas City Center
Sun 08:40:08 PM 38.1375 -93.1200 263° West 396 456 40,000  Level Kansas City Center
Sun 08:41:09 PM 38.1225 -93.2572 262° West 392 451 40,000  Level Kansas City Center
Sun 08:42:11 PM 38.1089 -93.3936 263° West 390 449 40,000  Level Kansas City Center
Sun 08:43:12 PM 38.0917 -93.5622 263° West 397 457 40,000  Level Kansas City Center
Sun 08:44:16 PM 38.0758 -93.7033 262° West 402 463 40,000  Level Kansas City Center
Sun 08:45:17 PM 38.0600 -93.8444 262° West 403 464 40,000  Level Kansas City Center
Sun 08:46:18 PM 38.0453 -93.9850 262° West 402 463 40,000  Level Kansas City Center
Sun 08:47:22 PM 38.0283 -94.1336 262° West 405 466 40,000  Level Kansas City Center
Sun 08:48:23 PM 38.0122 -94.2683 261° West 404 465 40,000  Level Kansas City Center
Sun 08:49:23 PM 37.9944 -94.4247 262° West 402 463 40,000  Level Kansas City Center
Sun 08:50:27 PM 37.9794 -94.5575 262° West 399 459 40,000  Level Kansas City Center
Sun 08:51:28 PM 37.9606 -94.7114 261° West 397 457 40,000  Level Kansas City Center
Sun 08:52:29 PM 37.9444 -94.8453 261° West 399 459 40,000  Level Kansas City Center
Sun 08:53:30 PM 37.9286 -94.9761 261° West 396 456 40,000  Level Kansas City Center
Sun 08:54:34 PM 37.9119 -95.1158 261° West 392 451 40,000  Level Kansas City Center
Sun 08:55:35 PM 37.8956 -95.2533 261° West 394 453 40,000  Level Kansas City Center
Sun 08:56:35 PM 37.8747 -95.4119 261° West 386 444 40,000  Level Kansas City Center
Sun 08:57:37 PM 37.8583 -95.5497 261° West 391 450 40,000  Level Kansas City Center
Sun 08:58:40 PM 37.8411 -95.6825 261° West 389 448 40,000  Level Kansas City Center
Sun 08:59:42 PM 37.8236 -95.8217 261° West 395 455 40,000  Level Kansas City Center
Sun 09:00:44 PM 37.8050 -95.9581 260° West 396 456 40,000  Level Kansas City Center
Sun 09:01:44 PM 37.7886 -96.0928 261° West 391 450 40,000  Level Kansas City Center
Sun 09:02:47 PM 37.7703 -96.2342 261° West 389 448 40,000  Level Kansas City Center
Sun 09:03:48 PM 37.7522 -96.3708 261° West 393 452 40,000  Level Kansas City Center
Sun 09:04:50 PM 37.7344 -96.5072 261° West 392 451 40,000  Level Kansas City Center
Sun 09:05:51 PM 37.7156 -96.6447 260° West 397 457 40,000  Level Kansas City Center
Sun 09:06:52 PM 37.6931 -96.8106 260° West 398 458 40,000  Level Kansas City Center
Sun 09:07:56 PM 37.6739 -96.9494 260° West 402 463 40,000  Level Kansas City Center
Sun 09:08:57 PM 37.6542 -97.0881 260° West 401 461 40,000  Level Kansas City Center
Sun 09:09:58 PM 37.6347 -97.2275 260° West 402 463 40,000  Level Kansas City Center
Sun 09:11:02 PM 37.6158 -97.3664 260° West 401 461 40,000  Level Kansas City Center
Sun 09:12:02 PM 37.5953 -97.5053 259° West 402 463 40,000  Level Kansas City Center
Sun 09:13:03 PM 37.5753 -97.6458 260° West 404 465 40,000  Level Kansas City Center
Sun 09:14:04 PM 37.5553 -97.7853 260° West 402 463 40,000  Level Kansas City Center
Sun 09:15:06 PM 37.5344 -97.9244 259° West 401 461 40,000  Level Kansas City Center
Sun 09:16:07 PM 37.5139 -98.0642 260° West 401 461 40,000  Level Kansas City Center
Sun 09:17:11 PM 37.4936 -98.2028 260° West 400 460 40,000  Level Kansas City Center
Sun 09:18:10 PM 37.4681 -98.3653 259° West 395 455 40,000  Level Kansas City Center
Sun 09:19:13 PM 37.4486 -98.4989 260° West 390 449 40,000  Level Kansas City Center
Sun 09:20:13 PM 37.4272 -98.6325 259° West 389 448 40,000  Level Kansas City Center
Sun 09:21:15 PM 37.4069 -98.7661 259° West 388 447 40,000  Level Kansas City Center
Sun 09:22:18 PM 37.3867 -98.8989 259° West 387 445 40,000  Level Kansas City Center
Sun 09:23:20 PM 37.3650 -99.0303 258° West 385 443 40,000  Level Kansas City Center
Sun 09:24:22 PM 37.3444 -99.1625 259° West 386 444 40,000  Level Kansas City Center
Sun 09:25:23 PM 37.3239 -99.2931 259° West 382 440 40,000  Level Kansas City Center
Sun 09:26:24 PM 37.3000 -99.4428 259° West 381 438 40,000  Level Kansas City Center
Sun 09:27:25 PM 37.2767 -99.5858 258° West 385 443 40,000  Level Kansas City Center
Sun 09:28:27 PM 37.2564 -99.7128 259° West 387 445 40,000  Level Kansas City Center
Sun 09:29:28 PM 37.2350 -99.8419 258° West 391 450 40,000  Level Kansas City Center
Sun 09:30:29 PM 37.2103 -99.9914 258° West 393 452 40,000  Level Kansas City Center
Sun 09:31:33 PM 37.1897 -100.1169 258° West 387 445 40,000  Level Kansas City Center
Sun 09:32:33 PM 37.1653 -100.2639 258° West 385 443 40,000  Level Kansas City Center
Sun 09:33:36 PM 37.1447 -100.3889 258° West 384 442 40,000  Level Kansas City Center
Sun 09:34:36 PM 37.1200 -100.5317 258° West 378 435 40,000  Level Kansas City Center
Sun 09:35:38 PM 37.0992 -100.6522 258° West 372 428 40,000  Level Kansas City Center
Sun 09:36:38 PM 37.0783 -100.7728 258° West 370 426 40,000  Level Kansas City Center
Sun 09:37:42 PM 37.0547 -100.9128 258° West 368 423 40,000  Level Kansas City Center
Sun 09:38:42 PM 37.0275 -101.0331 254° West 372 428 40,000  Level Kansas City Center
Sun 09:39:45 PM 36.9950 -101.1525 251° West 376 433 40,000  Level Kansas City Center
Sun 09:40:47 PM 36.9564 -101.2911 251° West 377 434 40,000  Level Kansas City Center
Sun 09:41:48 PM 36.9208 -101.4153 250° West 388 447 40,000  Level Kansas City Center
Sun 09:42:49 PM 36.8800 -101.5614 251° West 397 457 40,000  Level Kansas City Center
Sun 09:43:51 PM 36.8450 -101.6883 251° West 402 463 40,000  Level Kansas City Center
Sun 09:44:53 PM 36.8083 -101.8178 251° West 409 471 40,000  Level Kansas City Center
Sun 09:45:53 PM 36.7669 -101.9683 251° West 411 473 40,000  Level Kansas City Center
Sun 09:47:03 PM 36.7247 -102.1139 250° West 401 461 40,000  Level Albuquerque Center
Sun 09:48:04 PM 36.6897 -102.2400 251° West 399 459 40,000  Level Albuquerque Center
Sun 09:49:05 PM 36.6531 -102.3672 250° West 394 453 40,000  Level Albuquerque Center
Sun 09:50:07 PM 36.6083 -102.5203 250° West 394 453 40,000  Level Albuquerque Center
Sun 09:51:08 PM 36.5711 -102.6500 250° West 398 458 40,000  Level Albuquerque Center
Sun 09:52:09 PM 36.5333 -102.7772 250° West 396 456 40,000  Level Albuquerque Center
Sun 09:53:11 PM 36.4978 -102.9031 251° West 394 453 40,000  Level Albuquerque Center
Sun 09:54:12 PM 36.4619 -103.0294 251° West 388 447 40,000  Level Albuquerque Center
Sun 09:55:13 PM 36.4244 -103.1528 249° West 382 440 40,000  Level Albuquerque Center
Sun 09:56:14 PM 36.3886 -103.2772 250° West 380 437 40,000  Level Albuquerque Center
Sun 09:57:16 PM 36.3519 -103.3994 250° West 377 434 40,000  Level Albuquerque Center
Sun 09:58:17 PM 36.3081 -103.5428 249° West 378 435 40,000  Level Albuquerque Center
Sun 09:59:18 PM 36.2717 -103.6653 250° West 377 434 40,000  Level Albuquerque Center
Sun 10:00:19 PM 36.2344 -103.7897 250° West 381 438 40,000  Level Albuquerque Center
Sun 10:01:21 PM 36.2033 -103.9142 253° West 377 434 40,000  Level Albuquerque Center
Sun 10:02:22 PM 36.1736 -104.0364 253° West 372 428 40,000  Level Albuquerque Center
Sun 10:03:23 PM 36.1450 -104.1544 253° West 362 417 40,000  Level Albuquerque Center
Sun 10:04:24 PM 36.1139 -104.2739 252° West 363 418 40,000  Level Albuquerque Center
Sun 10:05:26 PM 36.0853 -104.3922 253° West 360 414 40,000 -585 Level Albuquerque Center
Sun 10:06:27 PM 36.0564 -104.5097 253° West 357 411 38,800 -1,770 Descending Albuquerque Center
Sun 10:07:28 PM 36.0286 -104.6236 253° West 348 400 36,400 -1,672 Descending Albuquerque Center
Sun 10:08:29 PM 35.9992 -104.7403 253° West 352 405 35,400 -1,426 Descending Albuquerque Center
Sun 10:09:30 PM 35.9686 -104.8619 253° West 363 418 33,500 -1,854 Descending Albuquerque Center
Sun 10:10:32 PM 35.9369 -104.9869 253° West 375 432 31,600 -1,659 Descending Albuquerque Center
Sun 10:11:33 PM 35.9011 -105.1311 253° West 375 432 30,100 -1,230 Descending Albuquerque Center
Sun 10:12:34 PM 35.8683 -105.2581 252° West 383 441 29,100 -984 Descending Albuquerque Center
Sun 10:13:35 PM 35.8358 -105.3817 252° West 380 437 28,100 -541 Descending Albuquerque Center
Sun 10:14:36 PM 35.8036 -105.5061 252° West 378 435 28,000 -49 Descending Albuquerque Center
Sun 10:15:38 PM 35.7733 -105.6250 253° West 375 432 28,000  Level Albuquerque Center
Sun 10:16:39 PM 35.7428 -105.7453 253° West 370 426 28,000  Level Albuquerque Center
Sun 10:17:40 PM 35.7128 -105.8625 253° West 364 419 28,000 -393 Level Albuquerque Center
Sun 10:18:41 PM 35.6831 -105.9786 253° West 358 412 27,200 -1,623 Descending Albuquerque Center
Sun 10:19:42 PM 35.6542 -106.0883 252° West 344 396 24,700 -2,262 Descending Albuquerque Center
Sun 10:20:43 PM 35.6303 -106.1992 255° West 338 389 22,600 -2,000 Descending Albuquerque Center
Sun 10:21:45 PM 35.6217 -106.3169 265° West 335 386 20,600 -1,902 Descending Albuquerque Center
Sun 10:22:46 PM 35.6106 -106.4197 262° West 320 368 18,700 -2,118 Descending Albuquerque Center
Sun 10:23:10 PM 35.6028 -106.4831 261° West 313 360 17,600 -2,361 Descending Albuquerque Center
Sun 10:23:47 PM 35.5961 -106.5461 263° West 314 361 16,300 -2,055 Descending Albuquerque Center
Sun 10:24:23 PM 35.5586 -106.5967 228° Southwest 321 369 15,100 -1,869 Descending Albuquerque Center
Sun 10:24:48 PM 35.5297 -106.6122 204° Southwest 321 369 14,400 -1,082 Descending Albuquerque Center
Sun 10:25:24 PM 35.4803 -106.6378 203° Southwest 310 357 14,000 -871 Descending Albuquerque Center
Sun 10:25:50 PM 35.4528 -106.6531 204° Southwest 307 353 13,500 -1,100 Descending Albuquerque Center
Sun 10:26:24 PM 35.4083 -106.6772 204° Southwest 283 326 12,900 -1,279 Descending Albuquerque Center
Sun 10:26:51 PM 35.3836 -106.6947 210° Southwest 286 329 12,200 -885 Descending Albuquerque Center
Sun 10:27:25 PM 35.3408 -106.7181 204° Southwest 266 306 12,000 -197 Descending Albuquerque Center
Sun 10:27:52 PM 35.3181 -106.7342 210° Southwest 270 311 12,000  Level Albuquerque Center
Sun 10:28:25 PM 35.2792 -106.7575 206° Southwest 251 289 12,000  Level Albuquerque Center
Sun 10:28:53 PM 35.2558 -106.7719 207° Southwest 256 295 12,000 -393 Level Albuquerque Center
Sun 10:29:26 PM 35.2150 -106.7922 202° Southwest 249 287 11,600 -689 Descending Albuquerque Center
Sun 10:29:54 PM 35.1889 -106.7892 175° South 255 293 11,300 -1,082 Descending Albuquerque Center
Sun 10:30:27 PM 35.1453 -106.7839 174° South 226 260 10,500 -1,258 Descending Albuquerque Center
Sun 10:30:56 PM 35.1253 -106.7756 161° South 235 270 10,000 -1,444 Descending Albuquerque Center
Sun 10:31:21 PM 35.0947 -106.7633 162° South 217 250 9,200 -1,574 Descending Albuquerque Center
Sun 10:31:57 PM 35.0658 -106.7508 160° South 226 260 8,400 -1,475 Descending Albuquerque Center
Sun 10:32:22 PM 35.0442 -106.7294 141° Southeast 198 228 7,700 -1,279 Descending Albuquerque Center
Sun 10:32:58 PM 35.0456 -106.7028 86° East 195 224 7,100 -1,400 Descending Albuquerque Center
Sun 10:33:22 PM 35.0444 -106.6697 92° East 162 186 6,300 -1,279 Descending Albuquerque Center
Sun 10:33:59 PM 35.0442 -106.6456 91° East 177 204 5,800 -606 Descending Albuquerque Center
Sun 10:35:01 PM 35.0439 -106.5861 90° East 168 193 5,300 -484 Descending Albuquerque Center

Login

Don't have an account? Register now (free) for customized features, flight alerts, and more!